createdAt,value
2017-12-30T00:01:30.950Z,89.27
2017-12-30T00:03:58.342Z,88.61
2017-12-30T00:06:25.735Z,88.50
2017-12-30T00:08:53.180Z,89.07
2017-12-30T00:11:20.566Z,89.39
2017-12-30T00:13:47.950Z,89.27
2017-12-30T00:16:16.138Z,89.05
2017-12-30T00:18:43.523Z,89.02
2017-12-30T00:21:10.918Z,88.50
2017-12-30T00:23:38.312Z,89.08
2017-12-30T00:26:05.678Z,89.16
2017-12-30T00:28:33.078Z,88.96
2017-12-30T00:31:00.470Z,88.78
2017-12-30T00:33:27.854Z,88.88
2017-12-30T00:35:55.238Z,88.44
2017-12-30T00:38:22.631Z,88.86
2017-12-30T00:40:50.003Z,89.06
2017-12-30T00:43:17.391Z,88.78
2017-12-30T00:45:44.773Z,89.09
2017-12-30T00:48:12.162Z,89.41
2017-12-30T00:50:39.623Z,89.64
2017-12-30T00:53:06.946Z,89.52
2017-12-30T00:55:34.326Z,89.16
2017-12-30T00:58:01.714Z,88.79
2017-12-30T01:00:29.105Z,88.84
2017-12-30T01:02:56.486Z,89.19
2017-12-30T01:05:23.875Z,89.17
2017-12-30T01:07:51.253Z,88.76
2017-12-30T01:10:18.646Z,88.37
2017-12-30T01:12:46.024Z,88.36
2017-12-30T01:15:13.413Z,88.38
2017-12-30T01:17:40.799Z,88.16
2017-12-30T01:20:08.188Z,88.43
2017-12-30T01:22:35.562Z,88.71
2017-12-30T01:25:02.954Z,88.98
2017-12-30T01:27:30.434Z,89.35
2017-12-30T01:29:58.016Z,89.03
2017-12-30T01:32:25.508Z,88.72
2017-12-30T01:34:52.901Z,88.87
2017-12-30T01:37:20.299Z,88.54
2017-12-30T01:39:47.693Z,89.23
2017-12-30T01:42:15.094Z,89.06
2017-12-30T01:44:42.493Z,88.50
2017-12-30T01:47:09.881Z,88.70
2017-12-30T01:49:37.277Z,88.95
2017-12-30T01:52:04.668Z,89.13
2017-12-30T01:54:32.072Z,89.53
2017-12-30T01:56:59.455Z,89.51
2017-12-30T01:59:26.846Z,89.84
2017-12-30T02:01:54.239Z,89.83
2017-12-30T02:04:21.641Z,90.09
2017-12-30T02:06:49.035Z,90.02
2017-12-30T02:09:16.431Z,90.24
2017-12-30T02:11:43.826Z,90.04
2017-12-30T02:14:11.226Z,90.15
2017-12-30T02:16:38.622Z,89.72
2017-12-30T02:19:06.060Z,89.35
2017-12-30T02:21:33.451Z,89.62
2017-12-30T02:24:00.880Z,89.54
2017-12-30T02:26:28.270Z,89.28
2017-12-30T02:28:55.662Z,89.25
2017-12-30T02:31:23.056Z,89.51
2017-12-30T02:33:50.454Z,89.51
2017-12-30T02:36:17.850Z,89.36
2017-12-30T02:38:45.254Z,89.48
2017-12-30T02:41:12.647Z,89.54
2017-12-30T02:43:40.044Z,89.61
2017-12-30T02:46:07.438Z,89.28
2017-12-30T02:48:34.910Z,89.37
2017-12-30T02:51:02.310Z,89.66
2017-12-30T02:53:29.706Z,89.41
2017-12-30T02:55:57.087Z,89.12
2017-12-30T02:58:24.590Z,88.79
2017-12-30T03:00:51.977Z,88.65
2017-12-30T03:03:19.374Z,88.88
2017-12-30T03:05:46.774Z,88.41
2017-12-30T03:08:14.169Z,88.77
2017-12-30T03:10:41.668Z,88.61
2017-12-30T03:13:09.058Z,88.69
2017-12-30T03:15:36.462Z,88.69
2017-12-30T03:18:03.854Z,88.23
2017-12-30T03:20:31.252Z,88.33
2017-12-30T03:22:58.647Z,88.97
2017-12-30T03:25:26.050Z,88.86
2017-12-30T03:27:53.439Z,88.59
2017-12-30T03:30:20.839Z,88.42
2017-12-30T03:32:48.231Z,88.21
2017-12-30T03:35:15.630Z,88.16
2017-12-30T03:37:43.019Z,88.18
2017-12-30T03:40:10.412Z,87.87
2017-12-30T03:42:37.810Z,88.10
2017-12-30T03:45:05.234Z,87.43
2017-12-30T03:47:32.697Z,87.26
2017-12-30T03:50:00.098Z,87.02
2017-12-30T03:52:27.494Z,87.34
2017-12-30T03:54:54.887Z,87.57
2017-12-30T03:57:22.282Z,87.73
2017-12-30T03:59:49.680Z,87.83
2017-12-30T04:02:17.077Z,87.94
2017-12-30T04:04:44.474Z,87.58
2017-12-30T04:07:11.871Z,87.72
2017-12-30T04:09:39.271Z,87.36
2017-12-30T04:12:06.658Z,87.93
2017-12-30T04:14:34.059Z,87.91
2017-12-30T04:17:01.446Z,87.92
2017-12-30T04:19:28.834Z,87.68
2017-12-30T04:21:56.231Z,87.53
2017-12-30T04:24:23.637Z,87.97
2017-12-30T04:29:24.958Z,87.30
2017-12-30T04:31:52.354Z,87.77
2017-12-30T04:34:19.751Z,87.79
2017-12-30T04:36:47.152Z,87.62
2017-12-30T04:39:14.554Z,87.23
2017-12-30T04:41:41.948Z,87.71
2017-12-30T04:44:09.338Z,87.56
2017-12-30T04:46:36.729Z,87.32
2017-12-30T04:49:04.226Z,87.24
2017-12-30T04:51:31.613Z,86.99
2017-12-30T04:53:59.014Z,86.85
2017-12-30T04:56:26.400Z,86.79
2017-12-30T04:58:53.798Z,86.58
2017-12-30T05:01:21.177Z,86.49
2017-12-30T05:03:48.582Z,86.06
2017-12-30T05:06:15.986Z,85.85
2017-12-30T05:08:43.378Z,85.32
2017-12-30T05:11:10.766Z,84.67
2017-12-30T05:13:38.165Z,84.81
2017-12-30T05:16:05.557Z,84.87
2017-12-30T05:18:32.955Z,84.58
2017-12-30T05:21:00.354Z,84.44
2017-12-30T05:23:27.748Z,84.40
2017-12-30T05:25:55.142Z,84.55
2017-12-30T05:28:22.529Z,84.65
2017-12-30T05:30:49.927Z,84.43
2017-12-30T05:33:17.326Z,84.25
2017-12-30T05:35:44.727Z,84.14
2017-12-30T05:38:12.223Z,84.27
2017-12-30T05:40:39.682Z,84.19
2017-12-30T05:43:07.073Z,83.96
2017-12-30T05:45:34.466Z,83.98
2017-12-30T05:48:01.851Z,83.34
2017-12-30T05:50:29.259Z,83.60
2017-12-30T05:52:56.647Z,83.40
2017-12-30T05:55:24.034Z,83.00
2017-12-30T05:57:51.429Z,82.55
2017-12-30T06:00:18.824Z,82.75
2017-12-30T06:02:46.270Z,82.44
2017-12-30T06:05:13.660Z,82.64
2017-12-30T06:07:41.043Z,82.40
2017-12-30T06:10:08.554Z,82.21
2017-12-30T06:12:35.942Z,82.91
2017-12-30T06:15:03.329Z,82.60
2017-12-30T06:17:30.716Z,81.82
2017-12-30T06:19:58.111Z,81.70
2017-12-30T06:22:25.490Z,81.54
2017-12-30T06:24:52.891Z,81.40
2017-12-30T06:27:20.274Z,81.79
2017-12-30T06:29:47.670Z,82.11
2017-12-30T06:32:15.054Z,81.85
2017-12-30T06:34:42.451Z,81.99
2017-12-30T06:37:09.837Z,82.35
2017-12-30T06:39:37.231Z,82.14
2017-12-30T06:42:04.623Z,82.08
2017-12-30T06:44:32.010Z,82.09
2017-12-30T06:46:59.398Z,82.54
2017-12-30T06:49:26.795Z,82.45
2017-12-30T06:51:54.183Z,82.68
2017-12-30T06:54:21.578Z,83.05
2017-12-30T06:56:48.959Z,82.89
2017-12-30T06:59:16.354Z,82.60
2017-12-30T07:01:43.729Z,82.40
2017-12-30T07:04:11.152Z,82.12
2017-12-30T07:06:38.558Z,81.84
2017-12-30T07:09:05.953Z,81.36
2017-12-30T07:11:33.339Z,82.34
2017-12-30T07:14:00.758Z,81.92
2017-12-30T07:16:28.151Z,82.55
2017-12-30T07:18:55.569Z,82.30
2017-12-30T07:21:22.970Z,81.44
2017-12-30T07:23:50.363Z,81.53
2017-12-30T07:26:17.791Z,81.55
2017-12-30T07:28:45.159Z,81.61
2017-12-30T07:31:12.559Z,81.40
2017-12-30T07:33:39.945Z,81.29
2017-12-30T07:36:07.337Z,81.08
2017-12-30T07:38:34.723Z,80.50
2017-12-30T07:41:02.118Z,80.08
2017-12-30T07:43:29.542Z,80.20
2017-12-30T07:45:56.930Z,79.77
2017-12-30T07:48:24.318Z,80.23
2017-12-30T07:50:51.705Z,80.46
2017-12-30T07:53:19.127Z,80.87
2017-12-30T07:55:46.511Z,80.85
2017-12-30T07:58:13.903Z,80.51
2017-12-30T08:00:41.298Z,80.99
2017-12-30T08:03:08.691Z,81.19
2017-12-30T08:05:36.081Z,81.13
2017-12-30T08:08:03.467Z,81.23
2017-12-30T08:10:30.865Z,80.64
2017-12-30T08:12:58.287Z,80.97
2017-12-30T08:15:28.997Z,81.09
2017-12-30T08:17:56.853Z,80.97
2017-12-30T08:20:24.264Z,81.14
2017-12-30T08:22:51.662Z,81.33
2017-12-30T08:25:19.050Z,81.54
2017-12-30T08:27:46.439Z,80.91
2017-12-30T08:30:13.830Z,81.56
2017-12-30T08:32:41.227Z,81.43
2017-12-30T08:35:08.634Z,81.38
2017-12-30T08:37:36.014Z,81.49
2017-12-30T08:40:03.418Z,81.43
2017-12-30T08:42:30.800Z,81.30
2017-12-30T08:44:58.198Z,81.48
2017-12-30T08:47:25.582Z,82.25
2017-12-30T08:49:52.979Z,81.81
2017-12-30T08:52:20.365Z,81.90
2017-12-30T08:54:47.758Z,81.68
2017-12-30T08:57:15.138Z,81.46
2017-12-30T08:59:42.526Z,81.17
2017-12-30T09:02:09.919Z,81.49
2017-12-30T09:04:37.374Z,81.63
2017-12-30T09:07:04.767Z,81.51
2017-12-30T09:09:32.159Z,81.00
2017-12-30T09:11:59.542Z,80.92
2017-12-30T09:14:26.934Z,80.04
2017-12-30T09:16:54.314Z,80.40
2017-12-30T09:19:21.707Z,80.62
2017-12-30T09:21:49.087Z,80.89
2017-12-30T09:24:16.470Z,80.72
2017-12-30T09:26:44.006Z,80.48
2017-12-30T09:29:12.077Z,80.07
2017-12-30T09:31:39.471Z,80.49
2017-12-30T09:34:06.855Z,80.48
2017-12-30T09:36:34.237Z,80.35
2017-12-30T09:39:01.715Z,80.87
2017-12-30T09:41:29.112Z,80.13
2017-12-30T09:43:56.503Z,80.67
2017-12-30T09:46:23.898Z,80.89
2017-12-30T09:48:51.275Z,80.65
2017-12-30T09:51:18.670Z,82.88
2017-12-30T09:53:46.157Z,82.67
2017-12-30T09:56:13.572Z,83.00
2017-12-30T09:58:40.945Z,82.90
2017-12-30T10:01:08.383Z,84.53
2017-12-30T10:03:35.782Z,84.32
2017-12-30T10:06:03.170Z,84.25
2017-12-30T10:08:30.574Z,85.01
2017-12-30T10:10:57.958Z,85.40
2017-12-30T10:13:25.345Z,85.80
2017-12-30T10:15:52.755Z,86.28
2017-12-30T10:18:20.133Z,86.43
2017-12-30T10:20:47.541Z,86.04
2017-12-30T10:23:14.923Z,86.79
2017-12-30T10:25:42.321Z,86.56
2017-12-30T10:28:09.706Z,86.33
2017-12-30T10:30:37.091Z,87.04
2017-12-30T10:33:04.476Z,87.15
2017-12-30T10:35:31.858Z,87.18
2017-12-30T10:37:59.248Z,86.73
2017-12-30T10:40:26.691Z,87.00
2017-12-30T10:42:54.078Z,87.49
2017-12-30T10:45:21.493Z,87.66
2017-12-30T10:47:48.864Z,87.80
2017-12-30T10:50:16.250Z,88.20
2017-12-30T10:52:43.634Z,88.71
2017-12-30T10:55:11.054Z,88.82
2017-12-30T10:57:38.417Z,89.02
2017-12-30T11:00:05.860Z,89.66
2017-12-30T11:02:33.243Z,90.07
2017-12-30T11:05:00.645Z,90.12
2017-12-30T11:07:28.034Z,89.81
2017-12-30T11:09:55.431Z,89.90
2017-12-30T11:12:22.829Z,90.16
2017-12-30T11:14:50.218Z,90.52
2017-12-30T11:17:17.606Z,90.81
2017-12-30T11:19:44.987Z,91.07
2017-12-30T11:22:12.390Z,91.58
2017-12-30T11:24:39.778Z,92.00
2017-12-30T11:27:07.179Z,92.12
2017-12-30T11:29:34.552Z,92.12
2017-12-30T11:32:01.952Z,92.42
2017-12-30T11:34:29.330Z,92.13
2017-12-30T11:36:56.714Z,91.96
2017-12-30T11:39:24.089Z,92.06
2017-12-30T11:41:51.475Z,92.26
2017-12-30T11:44:18.862Z,92.23
2017-12-30T11:46:46.258Z,92.37
2017-12-30T11:49:13.639Z,92.60
2017-12-30T11:51:41.021Z,92.59
2017-12-30T11:54:08.414Z,92.99
2017-12-30T11:56:35.896Z,93.24
2017-12-30T11:59:03.286Z,93.24
2017-12-30T12:01:31.484Z,93.33
2017-12-30T12:03:58.846Z,93.29
2017-12-30T12:06:26.239Z,92.92
2017-12-30T12:08:53.618Z,92.76
2017-12-30T12:11:21.145Z,92.89
2017-12-30T12:13:48.526Z,92.73
2017-12-30T12:16:15.918Z,93.03
2017-12-30T12:18:43.317Z,93.00
2017-12-30T12:21:10.689Z,93.01
2017-12-30T12:23:38.070Z,93.49
2017-12-30T12:26:05.479Z,93.79
2017-12-30T12:28:32.849Z,94.03
2017-12-30T12:31:00.250Z,93.65
2017-12-30T12:33:27.633Z,93.27
2017-12-30T12:35:55.026Z,92.80
2017-12-30T12:38:22.413Z,93.01
2017-12-30T12:40:49.786Z,93.32
2017-12-30T12:43:17.174Z,93.02
2017-12-30T12:45:44.558Z,93.28
2017-12-30T12:48:11.950Z,93.78
2017-12-30T12:50:39.340Z,93.93
2017-12-30T12:53:06.735Z,93.70
2017-12-30T12:55:34.115Z,93.86
2017-12-30T12:58:01.601Z,93.71
2017-12-30T13:00:28.978Z,94.06
2017-12-30T13:02:56.362Z,94.53
2017-12-30T13:05:23.746Z,94.41
2017-12-30T13:07:51.143Z,94.00
2017-12-30T13:10:18.538Z,93.59
2017-12-30T13:12:45.926Z,93.50
2017-12-30T13:15:13.307Z,93.01
2017-12-30T13:17:40.697Z,92.37
2017-12-30T13:20:09.050Z,92.76
2017-12-30T13:22:36.435Z,93.22
2017-12-30T13:25:03.826Z,93.91
2017-12-30T13:27:31.213Z,93.77
2017-12-30T13:29:58.606Z,93.85
2017-12-30T13:32:25.994Z,93.50
2017-12-30T13:34:53.373Z,92.80
2017-12-30T13:37:20.767Z,92.29
2017-12-30T13:39:48.166Z,92.08
2017-12-30T13:42:15.556Z,92.06
2017-12-30T13:44:42.930Z,92.54
2017-12-30T13:47:10.444Z,93.43
2017-12-30T13:49:37.819Z,93.97
2017-12-30T13:52:05.311Z,94.25
2017-12-30T13:54:32.693Z,94.56
2017-12-30T13:57:00.082Z,94.08
2017-12-30T13:59:27.468Z,93.38
2017-12-30T14:01:54.855Z,92.65
2017-12-30T14:04:22.234Z,92.41
2017-12-30T14:06:49.777Z,92.00
2017-12-30T14:09:17.142Z,91.55
2017-12-30T14:11:44.531Z,91.65
2017-12-30T14:14:11.911Z,91.17
2017-12-30T14:16:39.301Z,90.99
2017-12-30T14:19:06.686Z,91.32
2017-12-30T14:21:34.079Z,91.79
2017-12-30T14:24:01.462Z,91.43
2017-12-30T14:26:28.891Z,91.23
2017-12-30T14:28:56.287Z,90.71
2017-12-30T14:31:23.666Z,90.81
2017-12-30T14:33:51.057Z,91.01
2017-12-30T14:36:18.441Z,91.50
2017-12-30T14:38:45.830Z,90.93
2017-12-30T14:41:13.225Z,90.75
2017-12-30T14:43:40.602Z,90.83
2017-12-30T14:46:08.023Z,90.58
2017-12-30T14:48:35.402Z,90.83
2017-12-30T14:51:02.788Z,91.43
2017-12-30T14:53:30.174Z,91.77
2017-12-30T14:55:57.562Z,91.98
2017-12-30T14:58:24.957Z,92.23
2017-12-30T15:00:52.343Z,92.01
2017-12-30T15:03:19.730Z,91.61
2017-12-30T15:05:47.110Z,92.15
2017-12-30T15:08:14.498Z,92.44
2017-12-30T15:10:41.886Z,92.14
2017-12-30T15:13:09.273Z,91.43
2017-12-30T15:15:36.662Z,91.59
2017-12-30T15:18:04.061Z,91.32
2017-12-30T15:20:31.458Z,91.75
2017-12-30T15:22:58.872Z,91.87
2017-12-30T15:25:26.254Z,92.90
2017-12-30T15:27:53.650Z,93.52
2017-12-30T15:30:21.114Z,93.16
2017-12-30T15:32:48.535Z,93.34
2017-12-30T15:35:16.033Z,92.89
2017-12-30T15:37:43.422Z,93.22
2017-12-30T15:40:10.811Z,93.21
2017-12-30T15:42:38.206Z,93.77
2017-12-30T15:45:05.610Z,94.31
2017-12-30T15:47:33.001Z,94.18
2017-12-30T15:50:00.398Z,93.83
2017-12-30T15:52:27.794Z,93.87
2017-12-30T15:54:55.181Z,93.78
2017-12-30T15:57:22.579Z,93.90
2017-12-30T15:59:49.968Z,93.76
2017-12-30T16:02:17.399Z,93.43
2017-12-30T16:04:44.802Z,93.12
2017-12-30T16:07:12.194Z,93.14
2017-12-30T16:09:39.596Z,93.03
2017-12-30T16:12:07.051Z,93.30
2017-12-30T16:14:34.438Z,93.22
2017-12-30T16:17:01.829Z,92.91
2017-12-30T16:19:29.313Z,92.70
2017-12-30T16:21:56.724Z,92.61
2017-12-30T16:24:24.104Z,92.31
2017-12-30T16:26:51.510Z,91.83
2017-12-30T16:29:18.908Z,91.35
2017-12-30T16:31:46.305Z,91.19
2017-12-30T16:34:13.682Z,90.39
2017-12-30T16:36:41.111Z,89.62
2017-12-30T16:39:08.498Z,87.90
2017-12-30T16:41:35.919Z,86.61
2017-12-30T16:44:03.309Z,86.27
2017-12-30T16:46:30.698Z,84.63
2017-12-30T16:48:58.099Z,84.24
2017-12-30T16:51:25.486Z,84.33
2017-12-30T16:53:52.876Z,84.30
2017-12-30T16:56:20.263Z,84.58
2017-12-30T16:58:47.653Z,84.12
2017-12-30T17:01:15.035Z,83.79
2017-12-30T17:03:42.514Z,84.07
2017-12-30T17:06:09.917Z,83.82
2017-12-30T17:08:37.310Z,83.98
2017-12-30T17:11:04.704Z,84.25
2017-12-30T17:13:32.094Z,84.51
2017-12-30T17:15:59.489Z,84.79
2017-12-30T17:18:26.915Z,84.84
2017-12-30T17:20:54.288Z,84.33
2017-12-30T17:23:21.754Z,84.71
2017-12-30T17:25:49.215Z,84.82
2017-12-30T17:28:16.610Z,84.70
2017-12-30T17:30:44.008Z,84.66
2017-12-30T17:33:11.449Z,84.63
2017-12-30T17:35:38.846Z,84.42
2017-12-30T17:38:06.250Z,84.32
2017-12-30T17:40:33.635Z,83.50
2017-12-30T17:43:01.038Z,83.42
2017-12-30T17:45:28.426Z,83.81
2017-12-30T17:47:55.819Z,83.81
2017-12-30T17:50:23.210Z,84.25
2017-12-30T17:52:50.640Z,84.41
2017-12-30T17:55:18.124Z,84.49
2017-12-30T17:57:45.510Z,84.60
2017-12-30T18:00:12.901Z,84.59
2017-12-30T18:02:40.294Z,84.40
2017-12-30T18:05:07.689Z,84.25
2017-12-30T18:07:35.070Z,84.33
2017-12-30T18:10:02.473Z,84.63
2017-12-30T18:12:29.871Z,84.46
2017-12-30T18:14:57.299Z,84.46
2017-12-30T18:17:24.694Z,84.43
2017-12-30T18:19:52.090Z,84.20
2017-12-30T18:22:19.475Z,84.42
2017-12-30T18:24:46.874Z,84.35
2017-12-30T18:27:14.268Z,83.97
2017-12-30T18:29:41.706Z,83.71
2017-12-30T18:32:09.053Z,83.41
2017-12-30T18:34:36.452Z,83.24
2017-12-30T18:37:03.840Z,82.70
2017-12-30T18:39:31.230Z,82.76
2017-12-30T18:41:58.626Z,82.51
2017-12-30T18:44:26.022Z,82.26
2017-12-30T18:46:53.527Z,81.96
2017-12-30T18:49:20.930Z,82.23
2017-12-30T18:51:48.324Z,82.76
2017-12-30T18:54:15.725Z,82.42
2017-12-30T18:56:43.113Z,82.36
2017-12-30T18:59:10.504Z,82.13
2017-12-30T19:01:37.922Z,82.89
2017-12-30T19:04:06.276Z,83.43
2017-12-30T19:06:33.657Z,83.65
2017-12-30T19:09:01.057Z,83.28
2017-12-30T19:11:28.447Z,82.91
2017-12-30T19:13:55.938Z,83.18
2017-12-30T19:16:23.325Z,83.23
2017-12-30T19:18:50.763Z,83.34
2017-12-30T19:21:18.146Z,83.30
2017-12-30T19:23:45.552Z,82.65
2017-12-30T19:26:12.943Z,82.83
2017-12-30T19:28:40.346Z,82.59
2017-12-30T19:31:07.738Z,82.37
2017-12-30T19:33:35.136Z,82.34
2017-12-30T19:36:02.559Z,82.55
2017-12-30T19:38:29.942Z,82.15
2017-12-30T19:40:57.360Z,82.37
2017-12-30T19:43:24.755Z,82.39
2017-12-30T19:45:52.150Z,83.08
2017-12-30T19:48:19.538Z,84.24
2017-12-30T19:50:46.975Z,85.60
2017-12-30T19:53:14.371Z,85.97
2017-12-30T19:55:41.770Z,86.42
2017-12-30T19:58:09.150Z,86.91
2017-12-30T20:00:36.559Z,87.22
2017-12-30T20:03:03.946Z,87.77
2017-12-30T20:05:31.397Z,87.08
2017-12-30T20:07:58.786Z,87.16
2017-12-30T20:10:26.180Z,87.83
2017-12-30T20:12:53.567Z,88.18
2017-12-30T20:15:20.954Z,88.54
2017-12-30T20:17:48.344Z,88.02
2017-12-30T20:20:15.737Z,88.27
2017-12-30T20:22:43.114Z,88.11
2017-12-30T20:25:10.510Z,87.90
2017-12-30T20:27:37.892Z,88.08
2017-12-30T20:30:05.290Z,88.26
2017-12-30T20:32:32.674Z,88.36
2017-12-30T20:35:00.114Z,88.16
2017-12-30T20:37:27.506Z,87.86
2017-12-30T20:39:54.986Z,87.75
2017-12-30T20:42:22.370Z,87.55
2017-12-30T20:44:50.530Z,87.57
2017-12-30T20:47:17.918Z,87.52
2017-12-30T20:49:45.300Z,87.24
2017-12-30T20:52:12.780Z,87.28
2017-12-30T20:54:40.162Z,87.40
2017-12-30T20:57:07.550Z,87.22
2017-12-30T20:59:34.950Z,87.34
2017-12-30T21:02:02.351Z,87.47
2017-12-30T21:04:29.744Z,87.50
2017-12-30T21:06:57.134Z,87.29
2017-12-30T21:09:24.530Z,86.78
2017-12-30T21:11:51.923Z,86.03
2017-12-30T21:14:19.314Z,86.12
2017-12-30T21:16:46.706Z,85.25
2017-12-30T21:19:14.102Z,85.39
2017-12-30T21:21:41.494Z,85.57
2017-12-30T21:24:08.887Z,85.18
2017-12-30T21:26:36.271Z,85.21
2017-12-30T21:29:03.668Z,85.04
2017-12-30T21:31:31.054Z,84.96
2017-12-30T21:33:58.483Z,84.81
2017-12-30T21:36:25.958Z,84.43
2017-12-30T21:38:53.350Z,84.32
2017-12-30T21:41:20.730Z,83.98
2017-12-30T21:43:48.131Z,83.96
2017-12-30T21:46:15.518Z,83.97
2017-12-30T21:48:42.909Z,83.99
2017-12-30T21:51:10.304Z,83.44
2017-12-30T21:53:37.738Z,83.74
2017-12-30T21:56:05.136Z,83.65
2017-12-30T21:58:32.522Z,83.43
2017-12-30T22:01:00.690Z,83.17
2017-12-30T22:03:28.094Z,83.20
2017-12-30T22:05:55.486Z,82.81
2017-12-30T22:08:22.870Z,83.10
2017-12-30T22:10:50.265Z,83.19
2017-12-30T22:13:17.644Z,83.07
2017-12-30T22:15:45.044Z,82.94
2017-12-30T22:18:12.450Z,82.99
2017-12-30T22:20:39.895Z,82.60
2017-12-30T22:23:07.294Z,83.03
2017-12-30T22:25:34.699Z,82.60
2017-12-30T22:28:02.086Z,82.34
2017-12-30T22:30:29.477Z,82.01
2017-12-30T22:32:56.885Z,81.56
2017-12-30T22:35:24.274Z,81.85
2017-12-30T22:37:51.654Z,81.90
2017-12-30T22:40:19.051Z,81.42
2017-12-30T22:42:46.432Z,81.31
2017-12-30T22:45:13.826Z,81.20
2017-12-30T22:47:41.211Z,80.65
2017-12-30T22:50:08.605Z,80.64
2017-12-30T22:52:35.996Z,81.10
2017-12-30T22:55:03.411Z,80.89
2017-12-30T22:57:30.794Z,80.95
2017-12-30T22:59:58.183Z,81.10
2017-12-30T23:02:25.576Z,81.10
2017-12-30T23:04:52.966Z,80.92
2017-12-30T23:07:20.362Z,80.46
2017-12-30T23:09:47.767Z,80.72
2017-12-30T23:12:15.147Z,80.64
2017-12-30T23:14:42.541Z,80.52
2017-12-30T23:17:09.914Z,79.99
2017-12-30T23:19:37.309Z,80.00
2017-12-30T23:22:04.693Z,79.67
2017-12-30T23:24:32.098Z,79.38
2017-12-30T23:26:59.470Z,79.38
2017-12-30T23:29:26.873Z,79.07
2017-12-30T23:31:54.250Z,79.17
2017-12-30T23:34:21.655Z,78.86
2017-12-30T23:36:49.060Z,79.20
2017-12-30T23:39:16.449Z,79.86
2017-12-30T23:41:43.829Z,80.19
2017-12-30T23:44:11.223Z,80.02
2017-12-30T23:46:38.617Z,80.52
2017-12-30T23:49:06.037Z,79.55
2017-12-30T23:51:33.452Z,80.01
2017-12-30T23:54:00.799Z,79.70
2017-12-30T23:56:28.180Z,80.18
2017-12-30T23:58:55.566Z,80.45
